Time;durP1;ratioP1;P1;durP2;ratioP2;P2;SDS_P1;SDS_P2;PMS_P1;PMS_P2;Temp;Humidity;BMP_temperature;BMP_pressure;BME280_temperature;BME280_humidity;BME280_pressure;Samples;Min_cycle;Max_cycle;Signal;HPM_P1;HPM_P2
2023/07/25 00:04:25;;;;;;;1.55;1.20;;;;;;;17.53;52.90;98871.09;10428555;28;20033;-59
2023/07/25 00:09:27;;;;;;;2.95;1.27;;;;;;;17.16;53.71;98889.91;10431666;28;20045;-59
2023/07/25 00:14:29;;;;;;;1.75;1.08;;;;;;;16.82;54.23;98881.16;10430057;28;20052;-58
2023/07/25 00:19:31;;;;;;;1.42;0.93;;;;;;;16.78;54.56;98869.25;10430601;28;20143;-58
2023/07/25 00:24:33;;;;;;;0.60;0.60;;;;;;;16.80;54.54;98867.28;10409822;28;20049;-59
2023/07/25 00:29:35;;;;;;;0.88;0.57;;;;;;;16.88;54.44;98867.31;10427354;28;20496;-59
2023/07/25 00:34:37;;;;;;;0.93;0.90;;;;;;;16.91;54.65;98857.31;10427350;28;20053;-58
2023/07/25 00:39:39;;;;;;;1.35;0.98;;;;;;;16.97;54.80;98864.59;10421367;28;20123;-58
2023/07/25 00:44:41;;;;;;;1.45;0.90;;;;;;;16.94;54.83;98870.19;10423182;28;20132;-59
2023/07/25 00:49:45;;;;;;;2.03;1.40;;;;;;;16.79;55.02;98866.44;10425224;28;20098;-59
2023/07/25 00:54:49;;;;;;;1.50;1.00;;;;;;;16.75;55.31;98859.03;10426820;28;20045;-58
2023/07/25 00:59:51;;;;;;;0.93;0.75;;;;;;;16.67;55.26;98856.34;10423994;28;20049;-58
2023/07/25 01:04:53;;;;;;;1.70;0.80;;;;;;;16.84;55.15;98866.00;10408443;28;20052;-58
2023/07/25 01:09:55;;;;;;;1.05;0.90;;;;;;;16.91;55.53;98869.66;10426049;28;20468;-58
2023/07/25 01:14:57;;;;;;;1.60;1.00;;;;;;;16.92;55.28;98868.66;10424748;28;20048;-59
2023/07/25 01:19:59;;;;;;;1.05;0.98;;;;;;;16.80;55.55;98854.91;10423906;28;20048;-59
2023/07/25 01:25:02;;;;;;;1.67;1.13;;;;;;;16.91;55.71;98861.75;10423647;28;20056;-59
2023/07/25 01:30:04;;;;;;;2.00;1.30;;;;;;;16.97;55.34;98845.28;10425912;28;20037;-59
2023/07/25 01:35:07;;;;;;;3.33;1.40;;;;;;;16.97;55.63;98843.47;10425199;28;20149;-58
2023/07/25 01:40:10;;;;;;;3.42;1.80;;;;;;;17.03;55.99;98831.44;10424730;28;20041;-59
2023/07/25 01:45:12;;;;;;;2.33;1.55;;;;;;;16.96;55.87;98836.50;10421049;28;20053;-58
2023/07/25 01:50:14;;;;;;;2.17;1.13;;;;;;;17.04;56.31;98838.34;10424097;28;20139;-58
2023/07/25 01:55:16;;;;;;;1.67;1.10;;;;;;;17.01;56.23;98838.69;10421672;28;20067;-58
2023/07/25 02:00:18;;;;;;;1.52;0.90;;;;;;;16.95;56.02;98828.75;10421748;28;20488;-59
2023/07/25 02:05:20;;;;;;;2.28;1.27;;;;;;;16.73;56.45;98824.03;10430993;28;20875;-58
2023/07/25 02:10:22;;;;;;;1.92;1.15;;;;;;;16.82;56.21;98823.91;10463485;28;20072;-59
2023/07/25 02:15:24;;;;;;;2.63;1.67;;;;;;;16.94;56.03;98811.22;10428390;28;20044;-58
2023/07/25 02:20:27;;;;;;;1.95;1.20;;;;;;;16.79;56.33;98803.06;10462792;28;20497;-58
2023/07/25 02:25:29;;;;;;;3.10;1.10;;;;;;;16.88;56.63;98803.94;10422587;28;20068;-58
2023/07/25 02:30:31;;;;;;;2.10;1.25;;;;;;;16.84;56.57;98808.72;10430367;28;20405;-58
2023/07/25 02:35:33;;;;;;;2.33;0.98;;;;;;;16.80;56.48;98820.59;10420224;28;20052;-58
2023/07/25 02:40:35;;;;;;;1.73;1.02;;;;;;;16.74;56.71;98818.59;10431698;28;20053;-59
2023/07/25 02:45:37;;;;;;;1.25;0.98;;;;;;;16.76;56.97;98808.69;10429760;28;20139;-59
2023/07/25 02:50:39;;;;;;;1.90;1.00;;;;;;;16.79;56.74;98807.56;10462981;28;20364;-59
2023/07/25 02:55:41;;;;;;;2.25;1.20;;;;;;;16.75;57.22;98822.84;10445029;28;20143;-59
2023/07/25 03:00:43;;;;;;;1.95;1.10;;;;;;;16.75;57.00;98827.34;10429313;28;20095;-58
2023/07/25 03:05:45;;;;;;;1.48;1.00;;;;;;;16.83;57.28;98806.25;10462502;28;20059;-58
2023/07/25 03:10:47;;;;;;;1.17;1.00;;;;;;;16.52;57.38;98805.09;10432013;28;20044;-58
2023/07/25 03:15:49;;;;;;;1.77;1.10;;;;;;;16.46;57.94;98795.16;10430757;28;20409;-58
2023/07/25 03:20:51;;;;;;;2.53;1.40;;;;;;;16.65;57.75;98793.09;10430956;28;20461;-59
2023/07/25 03:25:53;;;;;;;1.25;1.02;;;;;;;16.61;57.45;98783.84;10430127;28;20139;-58
2023/07/25 03:30:55;;;;;;;2.20;1.20;;;;;;;16.72;57.42;98783.59;10462258;28;20493;-58
2023/07/25 03:35:57;;;;;;;2.70;1.33;;;;;;;16.77;57.45;98769.91;10462799;28;20056;-58
2023/07/25 03:40:59;;;;;;;2.83;1.40;;;;;;;16.66;57.48;98780.75;10427747;28;20408;-58
2023/07/25 03:46:02;;;;;;;1.95;1.30;;;;;;;16.42;57.93;98778.78;10430903;28;20048;-59
2023/07/25 03:51:04;;;;;;;1.58;1.00;;;;;;;16.52;58.11;98781.34;10430344;28;20052;-59
2023/07/25 03:56:07;;;;;;;2.28;1.20;;;;;;;16.57;58.05;98777.22;10422571;28;20306;-59
2023/07/25 04:01:09;;;;;;;1.52;1.08;;;;;;;16.58;57.86;98767.50;10427510;28;20056;-59
2023/07/25 04:06:11;;;;;;;3.33;1.67;;;;;;;16.62;57.93;98753.00;10429132;28;20098;-59
2023/07/25 04:11:13;;;;;;;1.63;1.10;;;;;;;16.73;57.70;98745.63;10425583;28;20068;-59
2023/07/25 04:16:15;;;;;;;2.78;1.20;;;;;;;16.75;57.67;98743.66;10429665;28;20151;-59
2023/07/25 04:21:17;;;;;;;2.00;1.30;;;;;;;16.71;57.89;98746.78;10426553;28;20094;-59
2023/07/25 04:26:19;;;;;;;2.08;1.20;;;;;;;16.76;57.94;98737.41;10428497;28;20095;-59
2023/07/25 04:31:21;;;;;;;4.82;1.35;;;;;;;16.92;57.55;98740.09;10460161;28;20045;-59
2023/07/25 04:36:28;;;;;;;4.43;1.40;;;;;;;17.03;57.56;98737.16;10427771;28;20037;-59
2023/07/25 04:41:30;;;;;;;6.93;1.77;;;;;;;17.14;57.50;98743.94;10426037;28;20040;-58
2023/07/25 04:46:33;;;;;;;2.05;1.10;;;;;;;17.20;57.17;98737.22;10426646;28;20118;-59
2023/07/25 04:51:35;;;;;;;2.35;1.23;;;;;;;17.19;57.31;98746.09;10417669;28;20090;-59
2023/07/25 04:56:40;;;;;;;1.80;1.10;;;;;;;17.03;57.20;98750.38;10426050;28;20049;-59
2023/07/25 05:01:42;;;;;;;2.17;1.52;;;;;;;16.91;57.83;98751.66;10422845;28;20271;-59
2023/07/25 05:06:44;;;;;;;1.92;1.42;;;;;;;16.93;57.49;98754.13;10427973;28;20497;-58
2023/07/25 05:11:51;;;;;;;4.80;1.95;;;;;;;17.04;57.60;98764.38;10425358;28;20052;-58
2023/07/25 05:16:53;;;;;;;3.13;1.67;;;;;;;17.00;58.07;98758.59;10427399;28;20057;-58
2023/07/25 05:21:55;;;;;;;4.05;1.88;;;;;;;17.10;57.63;98763.75;10408329;28;20173;-58
2023/07/25 05:26:57;;;;;;;2.40;1.55;;;;;;;17.18;57.76;98770.88;10424794;28;20307;-58
2023/07/25 05:32:01;;;;;;;2.40;1.33;;;;;;;17.21;57.63;98776.66;10425121;28;20131;-58
2023/07/25 05:37:03;;;;;;;1.92;1.40;;;;;;;17.14;57.67;98785.41;10424409;28;20374;-57
2023/07/25 05:42:06;;;;;;;2.70;1.33;;;;;;;17.03;57.93;98778.59;10424538;28;20053;-58
2023/07/25 05:47:08;;;;;;;3.70;1.80;;;;;;;16.90;58.41;98773.75;10423848;28;20052;-59
2023/07/25 05:52:10;;;;;;;3.30;1.85;;;;;;;16.84;58.65;98773.56;10424916;28;20045;-58
2023/07/25 05:57:12;;;;;;;4.85;1.98;;;;;;;16.85;58.52;98769.94;10425204;28;20292;-58
2023/07/25 06:02:16;;;;;;;4.10;2.22;;;;;;;17.00;58.71;98773.63;10425665;28;20043;-58
2023/07/25 06:07:18;;;;;;;4.20;2.10;;;;;;;17.20;58.91;98772.34;10423259;28;20053;-58
2023/07/25 06:12:23;;;;;;;4.38;2.17;;;;;;;17.15;58.90;98765.91;10424506;28;20139;-58
2023/07/25 06:17:25;;;;;;;5.18;2.58;;;;;;;16.92;59.67;98765.66;10453350;28;20055;-58
2023/07/25 06:22:27;;;;;;;4.60;2.25;;;;;;;16.82;60.20;98770.25;10424170;28;20227;-58
2023/07/25 06:27:29;;;;;;;3.97;2.22;;;;;;;16.83;60.40;98778.00;10423739;28;20556;-59
2023/07/25 06:32:31;;;;;;;4.82;2.80;;;;;;;16.92;60.77;98794.72;10423761;28;20048;-58
2023/07/25 06:37:34;;;;;;;5.18;2.42;;;;;;;16.96;61.23;98799.53;10428251;28;20045;-58
2023/07/25 06:42:37;;;;;;;5.25;2.58;;;;;;;16.74;61.77;98804.53;10425047;28;20621;-58
2023/07/25 06:47:39;;;;;;;6.30;2.70;;;;;;;16.54;61.87;98798.69;10458421;28;20040;-58
2023/07/25 06:52:42;;;;;;;4.35;2.38;;;;;;;16.42;62.22;98809.63;10425382;28;20045;-58
2023/07/25 06:57:46;;;;;;;6.00;3.22;;;;;;;16.30;62.38;98806.41;10424408;28;20834;-58
2023/07/25 07:02:54;;;;;;;4.97;3.08;;;;;;;16.24;63.66;98807.03;10426358;28;20072;-58
2023/07/25 07:08:00;;;;;;;4.35;2.40;;;;;;;16.17;62.83;98820.00;10422879;28;20049;-58
2023/07/25 07:13:04;;;;;;;3.90;2.40;;;;;;;16.24;62.88;98820.22;10430488;28;20130;-61
2023/07/25 07:18:05;;;;;;;5.88;2.78;;;;;;;16.29;63.04;98811.81;10426239;28;20064;-60
2023/07/25 07:23:08;;;;;;;5.60;3.20;;;;;;;16.23;63.26;98822.03;10428485;28;20140;-60
2023/07/25 07:28:12;;;;;;;4.72;2.58;;;;;;;16.13;63.35;98825.72;10426492;28;20052;-60
2023/07/25 07:33:18;;;;;;;7.20;2.83;;;;;;;16.02;63.53;98824.16;10427586;28;20393;-60
2023/07/25 07:38:21;;;;;;;4.82;2.80;;;;;;;16.07;63.65;98824.53;10423632;28;20385;-61
2023/07/25 07:43:24;;;;;;;4.10;2.50;;;;;;;16.01;63.33;98825.16;10426501;28;20041;-60
2023/07/25 07:48:28;;;;;;;5.38;3.03;;;;;;;16.01;63.83;98833.06;10422859;28;20413;-60
2023/07/25 07:53:30;;;;;;;5.50;2.90;;;;;;;16.09;63.64;98829.66;10427979;28;20179;-60
2023/07/25 07:58:32;;;;;;;3.58;2.08;;;;;;;16.03;63.36;98835.53;10427389;28;20522;-60
2023/07/25 08:03:35;;;;;;;5.30;2.42;;;;;;;15.85;63.57;98832.09;10430182;28;20049;-60
2023/07/25 08:08:37;;;;;;;4.78;2.03;;;;;;;15.67;63.59;98820.72;10427621;28;20037;-60
2023/07/25 08:13:39;;;;;;;5.35;2.90;;;;;;;15.50;63.75;98821.53;10426552;28;20040;-61
2023/07/25 08:18:41;;;;;;;6.97;2.70;;;;;;;15.30;64.29;98812.91;10427544;28;20049;-60
2023/07/25 08:23:43;;;;;;;4.50;2.33;;;;;;;15.36;64.88;98822.84;10429893;28;20047;-60
2023/07/25 08:28:45;;;;;;;4.15;2.13;;;;;;;15.50;64.80;98825.00;10431145;28;20088;-60
2023/07/25 08:33:47;;;;;;;3.85;1.73;;;;;;;15.32;64.47;98826.75;10431033;28;20292;-61
2023/07/25 08:38:49;;;;;;;2.58;1.48;;;;;;;15.03;64.97;98837.44;10430846;28;20562;-60
2023/07/25 08:43:55;;;;;;;3.03;1.60;;;;;;;15.13;64.52;98824.22;10430069;28;20106;-60
2023/07/25 08:49:03;;;;;;;4.25;1.60;;;;;;;14.98;64.97;98807.28;10426681;28;20497;-60
2023/07/25 08:54:08;;;;;;;2.97;1.50;;;;;;;14.95;64.79;98799.66;10428810;28;20053;-60
2023/07/25 08:59:11;;;;;;;2.60;1.50;;;;;;;15.17;64.75;98809.78;10426287;28;20137;-60
2023/07/25 09:04:15;;;;;;;2.15;1.50;;;;;;;16.01;63.72;98819.88;10428931;28;20167;-60
2023/07/25 09:09:17;;;;;;;5.55;1.63;;;;;;;16.78;62.54;98801.44;10428222;28;20390;-60
2023/07/25 09:14:19;;;;;;;2.50;1.15;;;;;;;17.46;60.89;98812.78;10427588;28;20496;-60
2023/07/25 09:19:21;;;;;;;2.25;1.20;;;;;;;18.40;59.74;98823.75;10427793;28;20061;-60
2023/07/25 09:24:39;;;;;;;2.63;1.50;;;;;;;18.42;59.04;98827.88;10428173;28;20394;-61
2023/07/25 09:29:42;;;;;;;2.53;1.50;;;;;;;18.64;58.62;98819.25;10427737;28;20051;-61
2023/07/25 09:34:45;;;;;;;1.55;1.08;;;;;;;19.27;57.56;98821.84;10427214;28;20110;-60
2023/07/25 09:39:48;;;;;;;1.42;1.10;;;;;;;19.09;56.38;98821.28;10427590;28;20227;-60
2023/07/25 09:44:53;;;;;;;2.25;1.10;;;;;;;18.81;56.87;98833.25;10427410;28;20041;-60
2023/07/25 09:49:56;;;;;;;1.73;1.10;;;;;;;19.22;55.79;98837.44;10426689;28;20052;-60
2023/07/25 09:54:58;;;;;;;1.73;1.20;;;;;;;19.72;55.82;98839.66;10426996;28;20501;-61
2023/07/25 10:00:03;;;;;;;1.35;1.10;;;;;;;19.91;55.03;98838.41;10427321;28;20041;-60
2023/07/25 10:05:07;;;;;;;1.85;1.00;;;;;;;19.96;54.69;98828.88;10424822;28;20060;-61
2023/07/25 10:10:10;;;;;;;2.03;1.25;;;;;;;19.94;54.61;98827.41;10426167;28;20140;-61
2023/07/25 10:15:13;;;;;;;2.58;1.30;;;;;;;19.59;54.64;98823.47;10426899;28;20045;-61
2023/07/25 10:20:24;;;;;;;2.75;1.40;;;;;;;19.71;54.74;98831.84;10425744;28;20068;-61
2023/07/25 10:25:28;;;;;;;3.42;1.50;;;;;;;20.14;54.09;98828.56;10426342;28;20424;-61
2023/07/25 10:30:33;;;;;;;2.55;1.50;;;;;;;20.48;52.15;98820.94;10425033;28;20787;-61
2023/07/25 10:35:42;;;;;;;3.00;1.40;;;;;;;21.48;49.65;98814.16;10457487;28;20055;-61
2023/07/25 10:40:56;;;;;;;2.05;1.23;;;;;;;21.65;49.34;98820.91;10425550;28;21014;-61
2023/07/25 10:46:00;;;;;;;3.13;1.35;;;;;;;21.33;48.64;98811.56;10408192;28;20377;-61
2023/07/25 10:51:06;;;;;;;2.38;1.40;;;;;;;21.15;50.28;98816.41;10457051;28;20679;-61
2023/07/25 10:56:09;;;;;;;1.65;1.08;;;;;;;21.87;50.23;98814.56;10424411;28;20049;-61
2023/07/25 11:01:37;;;;;;;1.88;1.17;;;;;;;21.37;48.45;98814.66;10426188;28;20222;-61
2023/07/25 11:06:39;;;;;;;2.67;1.20;;;;;;;21.73;47.28;98820.78;10426029;28;20045;-61
2023/07/25 11:11:46;;;;;;;2.15;1.30;;;;;;;21.59;46.98;98821.66;10424654;28;20063;-61
2023/07/25 11:16:50;;;;;;;3.00;1.45;;;;;;;21.74;47.52;98825.09;10424209;28;20434;-61
2023/07/25 11:21:52;;;;;;;2.00;1.30;;;;;;;22.36;46.37;98825.28;10425696;28;20489;-61
2023/07/25 11:26:54;;;;;;;3.17;1.52;;;;;;;22.72;45.71;98830.47;10432323;28;20045;-61
2023/07/25 11:32:00;;;;;;;1.65;0.95;;;;;;;22.15;45.81;98836.78;10432382;28;20217;-61
2023/07/25 11:37:11;;;;;;;2.83;1.33;;;;;;;21.01;47.82;98834.03;10432286;28;20463;-61
2023/07/25 11:42:14;;;;;;;2.92;1.48;;;;;;;20.19;48.69;98845.59;10431828;28;20408;-61
2023/07/25 11:47:16;;;;;;;2.83;1.10;;;;;;;20.15;48.88;98844.31;10431525;28;20080;-61
2023/07/25 11:52:19;;;;;;;5.35;1.55;;;;;;;20.27;49.02;98842.88;10430559;28;20053;-61
2023/07/25 11:57:21;;;;;;;4.90;1.30;;;;;;;20.61;48.38;98845.09;10431534;28;20140;-61
2023/07/25 12:02:24;;;;;;;1.67;1.20;;;;;;;21.14;47.90;98845.84;10426165;28;20071;-61
2023/07/25 12:07:26;;;;;;;1.83;1.50;;;;;;;21.58;47.03;98846.59;10422968;28;20067;-61
2023/07/25 12:12:28;;;;;;;1.50;1.10;;;;;;;21.84;46.42;98841.59;10418836;28;20049;-61
2023/07/25 12:17:45;;;;;;;3.38;1.45;;;;;;;21.63;44.69;98849.53;10416387;28;20391;-61
2023/07/25 12:22:48;;;;;;;1.73;1.00;;;;;;;21.29;42.91;98851.97;10418119;28;20053;-61
2023/07/25 12:27:52;;;;;;;1.52;1.10;;;;;;;21.57;44.27;98848.47;10409937;28;20045;-61
2023/07/25 12:32:54;;;;;;;1.40;1.08;;;;;;;21.83;42.86;98853.22;10425129;28;20812;-61
2023/07/25 12:37:57;;;;;;;1.58;1.17;;;;;;;22.03;41.62;98854.28;10420370;28;20045;-61
2023/07/25 12:42:59;;;;;;;4.55;1.40;;;;;;;21.95;42.02;98866.88;10421108;28;20045;-61
2023/07/25 12:48:02;;;;;;;1.10;1.00;;;;;;;21.55;41.38;98860.28;10420865;28;20127;-61
2023/07/25 12:53:05;;;;;;;2.63;1.00;;;;;;;22.13;40.10;98856.66;10419459;28;20041;-61
2023/07/25 12:58:07;;;;;;;1.50;0.98;;;;;;;22.17;39.99;98865.91;10418542;28;20037;-61
2023/07/25 13:03:09;;;;;;;2.28;0.80;;;;;;;22.45;39.02;98862.22;10414585;28;20131;-61
2023/07/25 13:08:11;;;;;;;1.30;1.00;;;;;;;21.90;38.83;98868.25;10416610;28;20155;-61
2023/07/25 13:13:14;;;;;;;1.10;0.82;;;;;;;21.95;39.22;98864.19;10421376;28;20048;-61
2023/07/25 13:18:16;;;;;;;2.28;1.17;;;;;;;22.22;38.88;98858.97;10418106;28;20047;-61
2023/07/25 13:23:18;;;;;;;3.13;1.67;;;;;;;22.38;37.67;98863.22;10425297;28;20049;-61
2023/07/25 13:28:20;;;;;;;5.22;3.60;;;;;;;22.29;38.44;98880.34;10420165;28;20163;-61
2023/07/25 13:33:22;;;;;;;4.78;3.03;;;;;;;22.05;39.13;98880.75;10424535;28;20084;-61
2023/07/25 13:38:24;;;;;;;2.65;1.60;;;;;;;22.03;38.69;98888.03;10417824;28;20223;-61
2023/07/25 13:43:26;;;;;;;3.42;1.30;;;;;;;21.95;38.75;98894.31;10419065;28;20544;-61
2023/07/25 13:48:28;;;;;;;3.25;1.83;;;;;;;21.93;38.66;98877.72;10421555;28;20156;-61
2023/07/25 13:53:30;;;;;;;1.80;1.10;;;;;;;21.80;38.54;98891.69;10419155;28;20169;-61
2023/07/25 13:58:32;;;;;;;1.63;1.20;;;;;;;21.50;38.06;98884.78;10419558;28;20044;-61
2023/07/25 14:03:34;;;;;;;2.40;1.30;;;;;;;21.56;37.97;98899.19;10420700;28;20382;-61
2023/07/25 14:08:36;;;;;;;3.80;2.03;;;;;;;21.47;37.59;98892.34;10419237;28;20374;-61
2023/07/25 14:13:39;;;;;;;2.40;1.52;;;;;;;21.49;37.63;98896.47;10417452;28;20425;-61
2023/07/25 14:18:41;;;;;;;4.80;1.90;;;;;;;21.63;37.69;98894.78;10400482;28;20705;-61
2023/07/25 14:23:42;;;;;;;4.93;2.00;;;;;;;21.91;37.97;98895.72;10420267;28;20138;-61
2023/07/25 14:28:45;;;;;;;3.00;1.30;;;;;;;21.80;37.46;98905.00;10448624;28;20056;-61
2023/07/25 14:33:47;;;;;;;1.90;1.10;;;;;;;21.93;37.19;98893.69;10420301;28;20045;-61
2023/07/25 14:38:49;;;;;;;3.58;1.27;;;;;;;22.03;37.05;98907.53;10417327;28;20057;-61
2023/07/25 14:43:51;;;;;;;6.22;2.17;;;;;;;21.81;37.61;98908.50;10419690;28;20047;-61
2023/07/25 14:48:54;;;;;;;2.47;1.10;;;;;;;21.52;37.78;98921.84;10427358;28;20049;-61
2023/07/25 14:53:56;;;;;;;2.10;1.20;;;;;;;21.41;37.60;98930.31;10422029;28;20231;-61
2023/07/25 14:59:00;;;;;;;1.08;0.98;;;;;;;21.31;38.12;98935.91;10424938;28;20294;-61
2023/07/25 15:04:02;;;;;;;3.58;1.00;;;;;;;21.15;38.37;98937.91;10429900;28;20052;-61
2023/07/25 15:09:04;;;;;;;4.05;1.13;;;;;;;20.99;38.74;98946.84;10426254;28;20443;-61
2023/07/25 15:14:06;;;;;;;1.85;0.93;;;;;;;20.77;39.08;98953.06;10427897;28;20140;-61
2023/07/25 15:19:08;;;;;;;5.05;0.98;;;;;;;20.51;39.36;98958.72;10428372;28;20084;-61
2023/07/25 15:24:10;;;;;;;0.90;0.80;;;;;;;19.91;40.08;98968.44;10423993;28;20049;-61
2023/07/25 15:29:12;;;;;;;1.92;0.80;;;;;;;19.23;40.53;98974.28;10420512;28;20041;-61
2023/07/25 15:34:14;;;;;;;2.55;0.93;;;;;;;18.97;40.84;98980.75;10429077;28;20048;-61
2023/07/25 15:39:16;;;;;;;5.88;1.52;;;;;;;18.82;41.23;98993.03;10425064;28;20492;-61
2023/07/25 15:44:18;;;;;;;2.00;1.50;;;;;;;18.77;42.36;98998.00;10426921;28;20138;-61
2023/07/25 15:49:20;;;;;;;3.42;1.00;;;;;;;18.60;42.85;99005.13;10428493;28;20524;-61
2023/07/25 15:54:23;;;;;;;1.13;1.00;;;;;;;18.59;43.70;99006.09;10420549;28;20052;-61
2023/07/25 15:59:25;;;;;;;1.98;1.10;;;;;;;18.50;43.46;99012.38;10427986;28;20411;-61
2023/07/25 16:04:27;;;;;;;1.13;0.73;;;;;;;18.46;43.34;99016.34;10426697;28;20523;-61
2023/07/25 16:09:29;;;;;;;1.33;0.98;;;;;;;18.28;43.87;99016.47;10427729;28;20128;-61
2023/07/25 16:14:31;;;;;;;3.47;1.35;;;;;;;18.41;43.81;99016.84;10427915;28;20135;-61
2023/07/25 16:19:33;;;;;;;1.35;0.90;;;;;;;18.50;43.94;99022.97;10429330;28;20045;-62
2023/07/25 16:24:35;;;;;;;6.10;1.13;;;;;;;18.56;43.73;99025.78;10423236;28;20044;-62
2023/07/25 16:29:37;;;;;;;1.60;1.02;;;;;;;18.53;44.01;99027.94;10429142;28;20576;-62
2023/07/25 16:34:40;;;;;;;3.50;1.33;;;;;;;18.63;44.23;99018.84;10427705;28;20057;-62
2023/07/25 16:39:42;;;;;;;1.52;1.23;;;;;;;18.68;44.15;99026.31;10413395;28;20041;-62
2023/07/25 16:44:44;;;;;;;1.63;0.95;;;;;;;18.72;44.44;99034.75;10428204;28;20633;-62
2023/07/25 16:49:46;;;;;;;3.88;1.13;;;;;;;18.93;44.29;99043.03;10424873;28;20120;-62
2023/07/25 16:54:48;;;;;;;4.40;1.00;;;;;;;18.96;43.92;99042.69;10424442;28;20045;-62
2023/07/25 16:59:50;;;;;;;3.08;0.77;;;;;;;18.89;44.15;99050.47;10417033;28;20118;-60
2023/07/25 17:04:58;;;;;;;1.02;0.90;;;;;;;18.71;43.89;99060.41;10423181;28;20041;-60
2023/07/25 17:10:00;;;;;;;1.85;1.13;;;;;;;18.67;44.16;99067.84;10454720;28;20067;-60
2023/07/25 17:15:02;;;;;;;0.93;0.80;;;;;;;18.57;44.39;99072.47;10422565;28;20128;-60
2023/07/25 17:20:06;;;;;;;3.03;1.38;;;;;;;18.58;43.89;99082.06;10454559;28;20049;-60
2023/07/25 17:25:08;;;;;;;1.70;0.77;;;;;;;18.66;43.61;99083.91;10421603;28;20064;-60
2023/07/25 17:30:13;;;;;;;2.03;1.00;;;;;;;18.54;43.12;99082.56;10423773;28;20135;-60
2023/07/25 17:35:15;;;;;;;0.95;0.70;;;;;;;18.57;43.31;99087.53;10422834;28;20391;-60
2023/07/25 17:40:32;;;;;;;1.80;0.82;;;;;;;18.76;43.39;99097.84;10421815;28;20467;-60
2023/07/25 17:45:34;;;;;;;3.35;1.27;;;;;;;18.76;43.41;99108.44;10423517;28;20045;-61
2023/07/25 17:50:37;;;;;;;0.73;0.73;;;;;;;18.78;43.65;99109.09;10424556;28;20517;-62
2023/07/25 17:55:40;;;;;;;0.65;0.60;;;;;;;18.89;43.49;99116.72;10418670;28;20048;-60
2023/07/25 18:00:43;;;;;;;1.30;0.70;;;;;;;18.82;43.73;99115.72;10414643;28;20068;-60
2023/07/25 18:05:47;;;;;;;2.20;1.00;;;;;;;18.69;44.38;99117.19;10419259;28;20055;-59
2023/07/25 18:10:50;;;;;;;1.08;0.80;;;;;;;18.65;44.30;99127.25;10418774;28;20564;-60
2023/07/25 18:15:53;;;;;;;2.30;1.00;;;;;;;18.47;44.15;99137.16;10418571;28;20044;-60
2023/07/25 18:20:56;;;;;;;0.75;0.63;;;;;;;18.33;44.72;99143.06;10416229;28;20063;-60
2023/07/25 18:26:01;;;;;;;0.93;0.80;;;;;;;18.28;44.83;99148.00;10415663;28;20048;-60
2023/07/25 18:31:03;;;;;;;2.83;1.00;;;;;;;18.19;44.65;99151.56;10418233;28;20492;-60
2023/07/25 18:36:05;;;;;;;2.47;0.85;;;;;;;17.86;45.20;99161.16;10418983;28;20130;-60
2023/07/25 18:41:08;;;;;;;2.42;1.23;;;;;;;17.80;45.74;99167.91;10421330;28;20138;-60
2023/07/25 18:46:13;;;;;;;1.35;0.90;;;;;;;17.62;46.10;99174.22;10421489;28;20404;-60
2023/07/25 18:51:16;;;;;;;0.75;0.70;;;;;;;17.63;46.55;99182.00;10418881;28;20049;-59
2023/07/25 18:56:21;;;;;;;2.42;1.30;;;;;;;17.71;46.74;99182.03;10420822;28;20384;-60
2023/07/25 19:01:24;;;;;;;1.48;1.20;;;;;;;17.65;47.06;99187.09;10417954;28;20053;-57
2023/07/25 19:06:27;;;;;;;1.35;1.00;;;;;;;17.51;48.64;99204.38;10419342;28;20088;-58
2023/07/25 19:11:30;;;;;;;2.40;1.15;;;;;;;17.41;49.03;99206.28;10422945;28;20041;-58
2023/07/25 19:16:32;;;;;;;1.42;0.95;;;;;;;17.28;49.88;99215.53;10419502;28;20048;-58
2023/07/25 19:21:34;;;;;;;1.67;1.20;;;;;;;17.15;50.34;99233.56;10419675;28;20322;-58
2023/07/25 19:26:36;;;;;;;2.00;1.08;;;;;;;17.08;50.75;99238.59;10422471;28;20085;-58
2023/07/25 19:31:38;;;;;;;3.08;1.10;;;;;;;17.04;51.00;99245.16;10420941;28;20302;-58
2023/07/25 19:36:40;;;;;;;1.67;1.23;;;;;;;16.98;51.26;99253.69;10418320;28;20126;-58
2023/07/25 19:41:43;;;;;;;3.22;1.00;;;;;;;16.91;51.64;99255.28;10423154;28;20138;-58
2023/07/25 19:46:46;;;;;;;3.30;1.00;;;;;;;16.87;51.82;99260.00;10431246;28;20083;-58
2023/07/25 19:51:48;;;;;;;1.60;1.00;;;;;;;16.79;52.30;99267.03;10430739;28;20427;-58
2023/07/25 19:56:50;;;;;;;2.25;1.15;;;;;;;16.71;52.18;99269.56;10428836;28;20140;-58
2023/07/25 20:01:52;;;;;;;1.30;1.00;;;;;;;16.59;52.59;99278.66;10429038;28;20045;-58
2023/07/25 20:06:54;;;;;;;1.63;1.10;;;;;;;16.53;53.06;99284.53;10429410;28;20139;-58
2023/07/25 20:11:56;;;;;;;4.22;1.20;;;;;;;16.44;51.85;99286.22;10429847;28;20182;-58
2023/07/25 20:17:00;;;;;;;2.80;1.40;;;;;;;16.51;51.25;99289.13;10427974;28;20211;-58
2023/07/25 20:22:02;;;;;;;1.98;1.10;;;;;;;16.52;51.24;99290.75;10421736;28;20344;-58
2023/07/25 20:27:05;;;;;;;1.48;1.02;;;;;;;16.43;51.26;99295.09;10414690;28;20053;-58
2023/07/25 20:32:07;;;;;;;1.52;1.30;;;;;;;16.40;51.26;99307.72;10426411;28;20456;-58
2023/07/25 20:37:09;;;;;;;2.28;1.35;;;;;;;16.24;51.31;99310.97;10424027;28;20409;-58
2023/07/25 20:42:11;;;;;;;2.20;1.10;;;;;;;16.09;51.23;99315.00;10424387;28;20052;-58
2023/07/25 20:47:13;;;;;;;1.80;1.20;;;;;;;16.00;51.94;99321.09;10421380;28;20139;-58
2023/07/25 20:52:15;;;;;;;1.95;1.17;;;;;;;16.01;51.57;99322.78;10421177;28;20075;-58
2023/07/25 20:57:18;;;;;;;2.70;1.00;;;;;;;15.91;51.82;99328.09;10421882;28;20535;-58
2023/07/25 21:02:20;;;;;;;1.52;1.00;;;;;;;15.81;51.95;99327.25;10419297;28;20501;-58
2023/07/25 21:07:22;;;;;;;2.45;0.95;;;;;;;15.82;51.77;99349.16;10416347;28;20406;-58
2023/07/25 21:12:24;;;;;;;1.95;1.00;;;;;;;15.70;52.05;99348.47;10426182;28;20049;-58
2023/07/25 21:17:26;;;;;;;1.80;1.15;;;;;;;15.70;52.39;99356.38;10427993;28;20064;-57
2023/07/25 21:22:28;;;;;;;2.88;1.65;;;;;;;15.64;52.72;99362.19;10424600;28;20064;-57
2023/07/25 21:27:31;;;;;;;3.28;1.60;;;;;;;15.63;52.72;99363.19;10427546;28;20110;-57
2023/07/25 21:32:33;;;;;;;2.45;1.20;;;;;;;15.64;52.81;99367.47;10398477;28;20053;-57
2023/07/25 21:37:35;;;;;;;1.98;1.10;;;;;;;15.79;52.75;99371.38;10427182;28;20430;-57
2023/07/25 21:42:37;;;;;;;1.05;0.90;;;;;;;15.85;52.14;99377.91;10425162;28;20160;-58
2023/07/25 21:47:39;;;;;;;1.85;1.17;;;;;;;15.84;52.32;99381.50;10425983;28;20055;-58
2023/07/25 21:52:41;;;;;;;1.58;1.08;;;;;;;15.82;52.47;99384.28;10425917;28;20501;-58
2023/07/25 21:57:42;;;;;;;1.00;0.88;;;;;;;15.72;52.65;99391.34;10426435;28;20132;-57
2023/07/25 22:02:44;;;;;;;1.38;1.08;;;;;;;15.60;53.02;99402.97;10426830;28;20131;-57
2023/07/25 22:07:47;;;;;;;4.88;1.17;;;;;;;15.39;53.18;99394.28;10425474;28;20041;-57
2023/07/25 22:12:51;;;;;;;1.40;1.08;;;;;;;15.21;53.65;99404.66;10426042;28;20040;-58
2023/07/25 22:17:53;;;;;;;3.45;1.42;;;;;;;15.07;54.36;99404.19;10426390;28;20065;-57
2023/07/25 22:22:55;;;;;;;0.93;0.90;;;;;;;14.90;55.00;99402.19;10426583;28;20096;-57
2023/07/25 22:27:59;;;;;;;1.58;1.17;;;;;;;14.90;54.81;99402.19;10426466;28;20452;-57
2023/07/25 22:33:02;;;;;;;1.70;1.00;;;;;;;14.83;54.57;99396.59;10425505;28;20405;-58
2023/07/25 22:38:04;;;;;;;1.30;1.17;;;;;;;14.80;54.99;99410.00;10422902;28;20045;-58
2023/07/25 22:43:06;;;;;;;1.40;1.00;;;;;;;14.73;55.07;99413.31;10423717;28;20056;-58
2023/07/25 22:48:08;;;;;;;2.58;0.85;;;;;;;14.71;55.19;99423.13;10426734;28;20255;-57
2023/07/25 22:53:10;;;;;;;5.45;1.02;;;;;;;14.65;55.66;99428.91;10425568;28;20134;-57
2023/07/25 22:58:12;;;;;;;3.85;1.30;;;;;;;14.55;55.81;99420.97;10424393;28;20053;-58
2023/07/25 23:03:14;;;;;;;2.10;1.25;;;;;;;14.50;55.82;99431.88;10423236;28;20481;-57
2023/07/25 23:08:17;;;;;;;1.13;1.00;;;;;;;14.50;56.09;99429.22;10425458;28;20048;-58
2023/07/25 23:13:19;;;;;;;1.63;1.02;;;;;;;14.52;56.24;99427.31;10422520;28;20053;-58
2023/07/25 23:18:21;;;;;;;3.35;1.60;;;;;;;14.67;55.97;99433.09;10428342;28;20815;-58
2023/07/25 23:23:23;;;;;;;1.80;1.20;;;;;;;14.67;56.23;99433.09;10427598;28;20401;-58
2023/07/25 23:28:25;;;;;;;2.92;0.80;;;;;;;14.61;56.21;99435.41;10432745;28;20044;-58